createdAt,value
2022-12-13T00:00:30.628Z,99058.45
2022-12-13T00:03:14.210Z,99058.42
2022-12-13T00:05:44.000Z,99056.23
2022-12-13T00:08:07.854Z,99057.26
2022-12-13T00:10:31.528Z,99061.67
2022-12-13T00:12:54.939Z,99057.94
2022-12-13T00:15:18.615Z,99064.39
2022-12-13T00:17:42.449Z,99061.34
2022-12-13T00:20:07.380Z,99064.27
2022-12-13T00:22:31.058Z,99062.40
2022-12-13T00:24:55.890Z,99070.23
2022-12-13T00:27:19.314Z,99074.16
2022-12-13T00:29:43.684Z,99076.03
2022-12-13T00:32:07.346Z,99076.87
2022-12-13T00:34:31.080Z,99079.08
2022-12-13T00:36:55.193Z,99076.52
2022-12-13T00:39:19.068Z,99078.56
2022-12-13T00:41:44.152Z,99086.05
2022-12-13T00:44:08.149Z,99087.77
2022-12-13T00:46:32.048Z,99091.52
2022-12-13T00:48:57.831Z,99094.75
2022-12-13T00:51:22.346Z,99088.79
2022-12-13T00:53:46.093Z,99088.27
2022-12-13T00:56:13.161Z,99083.84
2022-12-13T00:58:36.609Z,99088.27
2022-12-13T01:01:09.012Z,99087.91
2022-12-13T01:03:32.733Z,99095.77
2022-12-13T01:08:40.077Z,99100.70
2022-12-13T01:11:04.482Z,99099.85
2022-12-13T01:13:27.899Z,99103.77
2022-12-13T01:15:51.624Z,99109.23
2022-12-13T01:18:17.976Z,99111.09
2022-12-13T01:20:41.390Z,99107.34
2022-12-13T01:23:05.564Z,99108.02
2022-12-13T01:25:29.443Z,99112.13
2022-12-13T01:27:52.848Z,99113.48
2022-12-13T01:30:16.396Z,99109.39
2022-12-13T01:32:39.846Z,99113.30
2022-12-13T01:35:03.377Z,99114.66
2022-12-13T01:37:27.555Z,99117.05
2022-12-13T01:39:51.085Z,99121.65
2022-12-13T01:42:15.377Z,99122.69
2022-12-13T01:45:20.661Z,99123.38
2022-12-13T01:47:48.217Z,99121.67
2022-12-13T01:50:16.829Z,99121.35
2022-12-13T01:52:42.515Z,99123.20
2022-12-13T01:55:09.043Z,99130.19
2022-12-13T01:57:34.198Z,99128.84
2022-12-13T01:59:58.041Z,99130.38
2022-12-13T02:02:22.720Z,99128.85
2022-12-13T02:04:54.505Z,99125.45
2022-12-13T02:07:23.091Z,99129.19
2022-12-13T02:09:48.421Z,99129.52
2022-12-13T02:12:20.845Z,99131.22
2022-12-13T02:14:44.850Z,99129.70
2022-12-13T02:17:19.178Z,99130.71
2022-12-13T02:20:21.424Z,99125.44
2022-12-13T02:23:06.883Z,99125.77
2022-12-13T02:26:03.522Z,99124.76
2022-12-13T02:28:42.979Z,99128.33
2022-12-13T02:31:11.906Z,99122.88
2022-12-13T02:33:50.166Z,99123.54
2022-12-13T02:36:19.300Z,99124.59
2022-12-13T02:38:52.020Z,99126.46
2022-12-13T02:41:22.456Z,99127.82
2022-12-13T02:43:52.927Z,99128.15
2022-12-13T02:46:29.732Z,99129.84
2022-12-13T02:48:56.807Z,99131.56
2022-12-13T02:51:22.259Z,99137.51
2022-12-13T02:53:46.071Z,99136.99
2022-12-13T02:56:09.651Z,99137.50
2022-12-13T02:58:35.705Z,99142.95
2022-12-13T03:01:07.568Z,99144.83
2022-12-13T03:04:01.532Z,99143.64
2022-12-13T03:06:35.085Z,99146.05
2022-12-13T03:09:10.500Z,99147.75
2022-12-13T03:12:01.122Z,99149.45
2022-12-13T03:14:30.532Z,99151.32
2022-12-13T03:16:55.716Z,99149.96
2022-12-13T03:19:19.545Z,99150.64
2022-12-13T03:21:48.069Z,99150.11
2022-12-13T03:24:13.199Z,99150.11
2022-12-13T03:26:38.497Z,99145.35
2022-12-13T03:29:01.959Z,99142.27
2022-12-13T03:31:25.609Z,99142.93
2022-12-13T03:33:49.031Z,99146.52
2022-12-13T03:36:13.561Z,99144.96
2022-12-13T03:38:39.389Z,99148.20
2022-12-13T03:41:05.607Z,99145.64
2022-12-13T03:43:29.764Z,99140.87
2022-12-13T03:45:54.354Z,99146.34
2022-12-13T03:48:22.620Z,99144.97
2022-12-13T03:50:47.552Z,99149.07
2022-12-13T03:53:22.277Z,99148.05
2022-12-13T03:55:54.644Z,99148.73
2022-12-13T03:58:18.407Z,99153.17
2022-12-13T04:00:41.961Z,99154.71
2022-12-13T04:03:05.604Z,99156.76
2022-12-13T04:05:29.953Z,99154.70
2022-12-13T04:07:53.582Z,99152.13
2022-12-13T04:10:25.462Z,99155.54
2022-12-13T04:13:08.140Z,99153.13
2022-12-13T04:15:31.878Z,99159.30
2022-12-13T04:17:55.525Z,99161.16
2022-12-13T04:20:18.959Z,99162.86
2022-12-13T04:22:42.808Z,99159.11
2022-12-13T04:25:07.352Z,99166.11
2022-12-13T04:27:30.787Z,99168.85
2022-12-13T04:29:54.166Z,99170.02
2022-12-13T04:32:26.108Z,99170.88
2022-12-13T04:34:50.854Z,99170.55
2022-12-13T04:37:14.373Z,99168.34
2022-12-13T04:39:37.861Z,99170.91
2022-12-13T04:42:01.659Z,99169.89
2022-12-13T04:44:31.449Z,99172.78
2022-12-13T04:47:01.157Z,99175.69
2022-12-13T04:49:25.075Z,99177.40
2022-12-13T04:51:48.569Z,99181.14
2022-12-13T04:54:23.606Z,99186.23
2022-12-13T04:56:48.305Z,99186.76
2022-12-13T04:59:11.868Z,99190.34
2022-12-13T05:01:35.984Z,99190.85
2022-12-13T05:04:01.577Z,99187.27
2022-12-13T05:06:26.610Z,99189.50
2022-12-13T05:08:50.273Z,99184.73
2022-12-13T05:11:14.635Z,99187.96
2022-12-13T05:13:38.772Z,99196.83
2022-12-13T05:16:06.329Z,99193.27
2022-12-13T05:18:30.731Z,99191.21
2022-12-13T05:20:54.971Z,99193.43
2022-12-13T05:23:22.616Z,99195.48
2022-12-13T05:25:47.040Z,99202.12
2022-12-13T05:28:27.625Z,99201.95
2022-12-13T05:30:53.031Z,99205.52
2022-12-13T05:33:17.896Z,99209.09
2022-12-13T05:35:42.833Z,99215.75
2022-12-13T05:38:06.508Z,99211.31
2022-12-13T05:40:31.578Z,99217.63
2022-12-13T05:43:00.934Z,99216.27
2022-12-13T05:45:26.045Z,99218.31
2022-12-13T05:47:49.558Z,99219.16
2022-12-13T05:50:14.576Z,99228.02
2022-12-13T05:52:38.155Z,99234.49
2022-12-13T05:55:02.067Z,99234.33
2022-12-13T05:57:25.593Z,99240.80
2022-12-13T05:59:49.252Z,99242.68
2022-12-13T06:02:16.896Z,99239.95
2022-12-13T06:04:45.023Z,99243.36
2022-12-13T06:07:08.548Z,99244.55
2022-12-13T06:09:32.651Z,99247.96
2022-12-13T06:12:03.547Z,99251.18
2022-12-13T06:14:36.499Z,99257.64
2022-12-13T06:17:00.193Z,99260.88
2022-12-13T06:19:24.786Z,99260.01
2022-12-13T06:21:48.278Z,99264.92
2022-12-13T06:24:11.757Z,99264.59
2022-12-13T06:26:35.211Z,99271.23
2022-12-13T06:28:58.644Z,99272.40
2022-12-13T06:31:22.174Z,99277.34
2022-12-13T06:33:45.737Z,99279.21
2022-12-13T06:36:10.796Z,99286.84
2022-12-13T06:38:34.253Z,99285.98
2022-12-13T06:41:09.094Z,99287.18
2022-12-13T06:43:32.812Z,99286.67
2022-12-13T06:45:56.327Z,99295.54
2022-12-13T06:48:20.391Z,99303.04
2022-12-13T06:50:44.217Z,99305.59
2022-12-13T06:53:07.725Z,99301.15
2022-12-13T06:55:31.183Z,99310.01
2022-12-13T06:57:56.493Z,99313.06
2022-12-13T07:00:22.337Z,99317.66
2022-12-13T07:02:53.294Z,99322.92
2022-12-13T07:05:17.643Z,99324.10
2022-12-13T07:07:41.059Z,99328.17
2022-12-13T07:10:05.855Z,99327.13
2022-12-13T07:12:36.462Z,99326.44
2022-12-13T07:14:59.877Z,99332.05
2022-12-13T07:17:32.641Z,99337.34
2022-12-13T07:19:58.167Z,99337.17
2022-12-13T07:22:24.737Z,99340.23
2022-12-13T07:24:48.391Z,99341.11
2022-12-13T07:27:12.138Z,99347.23
2022-12-13T07:29:35.569Z,99348.23
2022-12-13T07:32:01.405Z,99349.08
2022-12-13T07:34:25.612Z,99352.64
2022-12-13T07:36:50.779Z,99353.98
2022-12-13T07:39:14.214Z,99363.69
2022-12-13T07:41:37.817Z,99365.90
2022-12-13T07:44:03.187Z,99367.77
2022-12-13T07:46:32.332Z,99373.71
2022-12-13T07:49:01.736Z,99377.48
2022-12-13T07:51:26.738Z,99372.55
2022-12-13T07:53:50.219Z,99379.88
2022-12-13T07:56:14.193Z,99380.58
2022-12-13T07:58:37.971Z,99379.77
2022-12-13T08:01:05.273Z,99385.05
2022-12-13T08:03:29.672Z,99386.42
2022-12-13T08:06:00.989Z,99388.46
2022-12-13T08:08:30.847Z,99392.20
2022-12-13T08:10:55.405Z,99396.95
2022-12-13T08:13:25.034Z,99400.17
2022-12-13T08:15:48.467Z,99401.67
2022-12-13T08:18:13.059Z,99400.81
2022-12-13T08:20:37.062Z,99401.65
2022-12-13T08:23:02.171Z,99411.20
2022-12-13T08:25:26.738Z,99406.95
2022-12-13T08:27:50.533Z,99412.92
2022-12-13T08:30:20.484Z,99408.03
2022-12-13T08:32:48.852Z,99410.27
2022-12-13T08:35:12.346Z,99409.27
2022-12-13T08:37:35.934Z,99411.52
2022-12-13T08:39:59.656Z,99411.04
2022-12-13T08:42:24.636Z,99414.61
2022-12-13T08:44:50.279Z,99413.40
2022-12-13T08:47:23.291Z,99423.23
2022-12-13T08:49:48.507Z,99424.41
2022-12-13T08:52:11.953Z,99428.14
2022-12-13T08:54:35.427Z,99431.37
2022-12-13T08:56:59.437Z,99430.52
2022-12-13T08:59:24.753Z,99430.20
2022-12-13T09:01:48.320Z,99433.46
2022-12-13T09:04:17.750Z,99440.98
2022-12-13T09:06:55.461Z,99439.66
2022-12-13T09:09:19.590Z,99438.33
2022-12-13T09:11:43.039Z,99438.34
2022-12-13T09:14:06.922Z,99441.92
2022-12-13T09:16:37.700Z,99444.64
2022-12-13T09:19:06.544Z,99450.77
2022-12-13T09:21:45.541Z,99447.36
2022-12-13T09:24:23.634Z,99448.71
2022-12-13T09:26:48.272Z,99451.60
2022-12-13T09:29:20.928Z,99453.13
2022-12-13T09:31:49.544Z,99453.64
2022-12-13T09:34:16.503Z,99450.75
2022-12-13T09:36:40.251Z,99449.90
2022-12-13T09:39:04.649Z,99456.03
2022-12-13T09:41:32.479Z,99453.82
2022-12-13T09:44:01.287Z,99458.09
2022-12-13T09:46:34.971Z,99456.21
2022-12-13T09:49:23.157Z,99458.08
2022-12-13T09:52:04.296Z,99459.45
2022-12-13T09:54:34.186Z,99458.61
2022-12-13T09:56:58.259Z,99456.59
2022-12-13T09:59:27.055Z,99460.15
2022-12-13T10:01:50.807Z,99464.05
2022-12-13T10:04:18.520Z,99467.29
2022-12-13T10:06:42.033Z,99466.41
2022-12-13T10:09:10.963Z,99463.67
2022-12-13T10:11:34.674Z,99466.92
2022-12-13T10:14:02.401Z,99462.83
2022-12-13T10:16:36.137Z,99459.77
2022-12-13T10:19:02.349Z,99464.89
2022-12-13T10:21:32.043Z,99464.21
2022-12-13T10:26:40.754Z,99467.45
2022-12-13T10:29:06.941Z,99468.14
2022-12-13T10:31:38.542Z,99463.89
2022-12-13T10:34:02.231Z,99467.61
2022-12-13T10:36:34.445Z,99469.47
2022-12-13T10:38:58.505Z,99473.02
2022-12-13T10:41:31.671Z,99475.88
2022-12-13T10:44:20.284Z,99475.53
2022-12-13T10:46:50.403Z,99476.36
2022-12-13T10:49:19.462Z,99474.16
2022-12-13T10:51:43.234Z,99469.06
2022-12-13T10:54:16.127Z,99462.61
2022-12-13T10:56:46.228Z,99465.84
2022-12-13T10:59:17.312Z,99461.27
2022-12-13T11:01:41.396Z,99459.05
2022-12-13T11:04:27.152Z,99459.42
2022-12-13T11:06:52.064Z,99459.10
2022-12-13T11:09:23.150Z,99457.77
2022-12-13T11:11:51.809Z,99460.02
2022-12-13T11:14:31.585Z,99457.14
2022-12-13T11:16:59.210Z,99460.22
2022-12-13T11:19:29.655Z,99456.64
2022-12-13T11:21:54.084Z,99457.51
2022-12-13T11:24:23.809Z,99458.70
2022-12-13T11:26:54.128Z,99455.09
2022-12-13T11:29:48.322Z,99458.63
2022-12-13T11:32:23.170Z,99463.52
2022-12-13T11:34:56.689Z,99459.24
2022-12-13T11:37:28.505Z,99461.10
2022-12-13T11:40:01.816Z,99464.66
2022-12-13T11:42:29.438Z,99459.16
2022-12-13T11:45:00.403Z,99462.21
2022-12-13T11:47:31.589Z,99465.79
2022-12-13T11:49:58.889Z,99463.39
2022-12-13T11:52:27.710Z,99461.85
2022-12-13T11:54:58.493Z,99468.31
2022-12-13T11:57:37.602Z,99469.50
2022-12-13T12:00:15.988Z,99470.31
2022-12-13T12:03:06.415Z,99464.84
2022-12-13T12:05:34.590Z,99462.84
2022-12-13T12:08:32.359Z,99469.37
2022-12-13T12:10:51.075Z,99471.19
2022-12-13T12:13:19.456Z,99478.25
2022-12-13T12:15:50.082Z,99479.02
2022-12-13T12:18:19.007Z,99477.55
2022-12-13T12:20:56.356Z,99480.36
2022-12-13T12:23:30.481Z,99483.66
2022-12-13T12:26:05.985Z,99481.50
2022-12-13T12:28:44.118Z,99486.16
2022-12-13T12:31:15.614Z,99489.59
2022-12-13T12:33:51.929Z,99491.99
2022-12-13T12:36:32.021Z,99493.86
2022-12-13T12:39:26.467Z,99493.70
2022-12-13T12:42:03.241Z,99490.80
2022-12-13T12:44:34.114Z,99494.89
2022-12-13T12:50:22.918Z,99497.96
2022-12-13T12:52:58.871Z,99500.52
2022-12-13T12:55:41.732Z,99502.56
2022-12-13T12:58:15.310Z,99503.25
2022-12-13T13:00:48.150Z,99506.68
2022-12-13T13:03:23.035Z,99506.33
2022-12-13T13:05:55.831Z,99506.31
2022-12-13T13:08:29.667Z,99508.69
2022-12-13T13:10:55.259Z,99510.39
2022-12-13T13:13:46.240Z,99514.14
2022-12-13T13:16:30.624Z,99516.89
2022-12-13T13:18:55.231Z,99521.48
2022-12-13T13:21:46.667Z,99525.92
2022-12-13T13:24:17.897Z,99529.52
2022-12-13T13:26:43.144Z,99532.04
2022-12-13T13:29:34.909Z,99534.45
2022-12-13T13:32:02.159Z,99534.63
2022-12-13T13:34:30.828Z,99535.31
2022-12-13T13:36:56.468Z,99538.39
2022-12-13T13:39:38.669Z,99543.33
2022-12-13T13:42:17.927Z,99541.83
2022-12-13T13:45:00.264Z,99546.61
2022-12-13T13:47:48.152Z,99548.97
2022-12-13T13:50:46.614Z,99550.67
2022-12-13T13:53:55.261Z,99548.79
2022-12-13T13:56:43.703Z,99557.63
2022-12-13T13:59:42.261Z,99554.39
2022-12-13T14:02:35.138Z,99559.61
2022-12-13T14:05:31.285Z,99562.80
2022-12-13T14:08:20.084Z,99569.87
2022-12-13T14:11:17.274Z,99567.70
2022-12-13T14:14:21.812Z,99566.38
2022-12-13T14:17:38.780Z,99574.76
2022-12-13T14:20:39.478Z,99578.20
2022-12-13T14:23:10.650Z,99577.73
2022-12-13T14:25:58.399Z,99575.77
2022-12-13T14:28:43.699Z,99581.11
2022-12-13T14:31:21.455Z,99585.80
2022-12-13T14:33:47.459Z,99586.71
2022-12-13T14:36:16.454Z,99583.92
2022-12-13T14:38:39.933Z,99579.45
2022-12-13T14:41:05.439Z,99580.40
2022-12-13T14:43:30.459Z,99583.39
2022-12-13T14:45:57.304Z,99584.19
2022-12-13T14:48:28.080Z,99586.89
2022-12-13T14:50:53.881Z,99586.65
2022-12-13T14:53:25.593Z,99584.58
2022-12-13T14:56:05.768Z,99592.70
2022-12-13T14:58:29.507Z,99593.02
2022-12-13T15:00:56.101Z,99592.65
2022-12-13T15:03:24.715Z,99592.81
2022-12-13T15:05:54.353Z,99591.57
2022-12-13T15:08:19.324Z,99593.05
2022-12-13T15:10:48.311Z,99595.73
2022-12-13T15:13:25.486Z,99598.89
2022-12-13T15:15:56.331Z,99602.95
2022-12-13T15:18:23.223Z,99601.41
2022-12-13T15:20:50.128Z,99598.88
2022-12-13T15:23:48.858Z,99603.77
2022-12-13T15:26:28.350Z,99602.20
2022-12-13T15:28:56.036Z,99600.98
2022-12-13T15:31:18.985Z,99599.77
2022-12-13T15:33:48.577Z,99601.46
2022-12-13T15:36:16.945Z,99604.67
2022-12-13T15:38:46.343Z,99605.52
2022-12-13T15:41:17.670Z,99609.42
2022-12-13T15:43:47.240Z,99612.34
2022-12-13T15:46:11.127Z,99617.95
2022-12-13T15:48:37.819Z,99617.27
2022-12-13T15:51:10.708Z,99619.30
2022-12-13T15:53:35.083Z,99615.90
2022-12-13T15:55:59.656Z,99618.64
2022-12-13T15:58:26.962Z,99623.55
2022-12-13T16:00:50.794Z,99625.08
2022-12-13T16:03:19.056Z,99624.22
2022-12-13T16:05:50.312Z,99626.76
2022-12-13T16:08:25.669Z,99628.64
2022-12-13T16:10:52.320Z,99625.59
2022-12-13T16:13:26.073Z,99620.84
2022-12-13T16:15:51.617Z,99618.13
2022-12-13T16:18:26.910Z,99620.99
2022-12-13T16:20:50.503Z,99617.23
2022-12-13T16:23:21.239Z,99615.38
2022-12-13T16:25:51.758Z,99615.55
2022-12-13T16:28:16.719Z,99619.44
2022-12-13T16:31:15.612Z,99622.64
2022-12-13T16:33:39.226Z,99624.33
2022-12-13T16:36:03.040Z,99627.38
2022-12-13T16:38:27.546Z,99632.11
2022-12-13T16:40:55.705Z,99636.52
2022-12-13T16:43:25.385Z,99633.41
2022-12-13T16:45:53.896Z,99634.39
2022-12-13T16:48:18.084Z,99640.17
2022-12-13T16:50:44.640Z,99638.42
2022-12-13T16:53:11.643Z,99642.15
2022-12-13T16:55:38.406Z,99643.20
2022-12-13T16:58:03.733Z,99647.47
2022-12-13T17:00:29.081Z,99645.89
2022-12-13T17:02:52.618Z,99651.34
2022-12-13T17:05:16.944Z,99654.05
2022-12-13T17:07:40.382Z,99652.35
2022-12-13T17:10:05.504Z,99649.96
2022-12-13T17:12:29.098Z,99653.53
2022-12-13T17:14:53.736Z,99653.19
2022-12-13T17:17:17.877Z,99655.55
2022-12-13T17:19:41.652Z,99659.77
2022-12-13T17:22:05.394Z,99658.89
2022-12-13T17:24:30.829Z,99657.84
2022-12-13T17:26:56.157Z,99665.16
2022-12-13T17:29:19.922Z,99669.20
2022-12-13T17:31:44.185Z,99664.29
2022-12-13T17:34:07.690Z,99664.23
2022-12-13T17:36:31.807Z,99662.80
2022-12-13T17:38:55.361Z,99666.02
2022-12-13T17:41:19.091Z,99669.20
2022-12-13T17:43:43.736Z,99669.86
2022-12-13T17:46:11.253Z,99673.42
2022-12-13T17:48:40.231Z,99672.55
2022-12-13T17:51:05.854Z,99674.25
2022-12-13T17:53:29.712Z,99676.27
2022-12-13T17:55:58.067Z,99673.34
2022-12-13T17:58:21.764Z,99672.30
2022-12-13T18:00:45.214Z,99670.59
2022-12-13T18:03:08.689Z,99672.98
2022-12-13T18:05:33.263Z,99669.73
2022-12-13T18:07:56.763Z,99675.13
2022-12-13T18:10:23.598Z,99672.55
2022-12-13T18:12:49.879Z,99676.45
2022-12-13T18:15:13.476Z,99676.81
2022-12-13T18:18:09.608Z,99684.52
2022-12-13T18:20:20.721Z,99689.27
2022-12-13T18:22:48.336Z,99686.23
2022-12-13T18:25:14.940Z,99686.56
2022-12-13T18:27:38.426Z,99683.87
2022-12-13T18:30:02.243Z,99689.66
2022-12-13T18:32:25.721Z,99692.58
2022-12-13T18:34:49.186Z,99695.30
2022-12-13T18:37:18.343Z,99697.20
2022-12-13T18:39:41.916Z,99698.08
2022-12-13T18:42:18.334Z,99699.40
2022-12-13T18:44:41.802Z,99705.52
2022-12-13T18:47:20.998Z,99703.95
2022-12-13T18:49:55.470Z,99702.40
2022-12-13T18:52:20.227Z,99704.41
2022-12-13T18:54:45.387Z,99707.96
2022-12-13T18:57:19.605Z,99709.92
2022-12-13T18:59:43.062Z,99716.18
2022-12-13T19:02:18.286Z,99723.48
2022-12-13T19:04:42.574Z,99721.04
2022-12-13T19:07:19.673Z,99726.61
2022-12-13T19:09:43.548Z,99730.85
2022-12-13T19:12:18.064Z,99731.50
2022-12-13T19:14:41.534Z,99730.94
2022-12-13T19:17:05.560Z,99732.59
2022-12-13T19:19:29.271Z,99732.55
2022-12-13T19:21:52.811Z,99734.05
2022-12-13T19:24:17.640Z,99734.20
2022-12-13T19:26:41.257Z,99732.66
2022-12-13T19:29:04.933Z,99734.99
2022-12-13T19:31:32.282Z,99736.52
2022-12-13T19:33:57.927Z,99733.08
2022-12-13T19:36:21.594Z,99740.33
2022-12-13T19:38:46.549Z,99742.30
2022-12-13T19:41:12.830Z,99741.79
2022-12-13T19:43:36.819Z,99744.16
2022-12-13T19:46:02.653Z,99744.10
2022-12-13T19:48:26.116Z,99747.05
2022-12-13T19:50:49.576Z,99746.33
2022-12-13T19:53:13.692Z,99741.70
2022-12-13T19:55:41.649Z,99744.54
2022-12-13T19:58:05.097Z,99748.80
2022-12-13T20:00:29.022Z,99743.20
2022-12-13T20:02:52.599Z,99742.30
2022-12-13T20:05:16.485Z,99740.58
2022-12-13T20:07:40.640Z,99745.17
2022-12-13T20:10:04.757Z,99748.50
2022-12-13T20:12:29.179Z,99752.48
2022-12-13T20:14:52.934Z,99753.95
2022-12-13T20:17:16.431Z,99761.87
2022-12-13T20:19:40.087Z,99763.80
2022-12-13T20:22:05.050Z,99764.39
2022-12-13T20:24:28.690Z,99768.40
2022-12-13T20:26:52.184Z,99766.98
2022-12-13T20:29:15.993Z,99772.79
2022-12-13T20:31:40.419Z,99771.52
2022-12-13T20:34:06.070Z,99767.66
2022-12-13T20:36:30.829Z,99772.84
2022-12-13T20:38:55.784Z,99772.41
2022-12-13T20:41:19.702Z,99770.94
2022-12-13T20:43:44.085Z,99768.94
2022-12-13T20:46:14.468Z,99769.27
2022-12-13T20:48:39.227Z,99771.64
2022-12-13T20:51:04.930Z,99770.58
2022-12-13T20:53:31.402Z,99768.13
2022-12-13T20:55:57.437Z,99771.14
2022-12-13T20:58:21.149Z,99771.27
2022-12-13T21:00:44.633Z,99776.04
2022-12-13T21:03:08.171Z,99778.88
2022-12-13T21:05:32.259Z,99777.67
2022-12-13T21:08:14.369Z,99780.80
2022-12-13T21:10:39.663Z,99781.07
2022-12-13T21:13:03.347Z,99780.86
2022-12-13T21:15:26.806Z,99780.34
2022-12-13T21:17:50.228Z,99786.25
2022-12-13T21:20:13.735Z,99782.14
2022-12-13T21:22:37.317Z,99789.03
2022-12-13T21:25:01.016Z,99788.92
2022-12-13T21:27:24.790Z,99790.36
2022-12-13T21:29:48.261Z,99791.16
2022-12-13T21:32:11.907Z,99794.48
2022-12-13T21:34:37.080Z,99792.91
2022-12-13T21:37:00.487Z,99792.88
2022-12-13T21:39:27.214Z,99795.64
2022-12-13T21:41:50.746Z,99793.50
2022-12-13T21:44:15.776Z,99796.45
2022-12-13T21:49:23.126Z,99799.76
2022-12-13T21:51:48.393Z,99797.96
2022-12-13T21:54:12.333Z,99796.69
2022-12-13T21:56:54.470Z,99794.80
2022-12-13T21:59:21.397Z,99797.12
2022-12-13T22:02:08.769Z,99797.88
2022-12-13T22:04:33.702Z,99798.48
2022-12-13T22:06:57.305Z,99798.30
2022-12-13T22:09:20.938Z,99795.18
2022-12-13T22:11:44.344Z,99794.48
2022-12-13T22:14:07.786Z,99794.59
2022-12-13T22:16:31.454Z,99794.58
2022-12-13T22:18:55.699Z,99794.71
2022-12-13T22:21:19.225Z,99796.89
2022-12-13T22:23:42.774Z,99797.39
2022-12-13T22:26:07.636Z,99796.67
2022-12-13T22:28:31.549Z,99798.86
2022-12-13T22:30:55.124Z,99798.88
2022-12-13T22:33:18.562Z,99796.52
2022-12-13T22:35:42.058Z,99795.71
2022-12-13T22:38:05.516Z,99798.09
2022-12-13T22:40:28.984Z,99797.66
2022-12-13T22:42:52.448Z,99794.27
2022-12-13T22:45:16.860Z,99795.47
2022-12-13T22:47:40.358Z,99792.54
2022-12-13T22:50:06.093Z,99793.17
2022-12-13T22:52:33.798Z,99796.81
2022-12-13T22:54:58.308Z,99797.83
2022-12-13T22:57:21.700Z,99792.48
2022-12-13T22:59:45.150Z,99786.77
2022-12-13T23:02:09.172Z,99782.92
2022-12-13T23:04:33.558Z,99781.18
2022-12-13T23:06:57.065Z,99781.04
2022-12-13T23:09:21.456Z,99783.20
2022-12-13T23:12:03.300Z,99781.94
2022-12-13T23:14:28.636Z,99779.82
2022-12-13T23:16:52.544Z,99780.88
2022-12-13T23:19:40.919Z,99783.44
2022-12-13T23:22:00.902Z,99782.38
2022-12-13T23:24:25.002Z,99782.98
2022-12-13T23:26:48.667Z,99782.20
2022-12-13T23:29:12.829Z,99781.29
2022-12-13T23:31:38.449Z,99784.27
2022-12-13T23:34:02.498Z,99782.67
2022-12-13T23:36:27.124Z,99782.81
2022-12-13T23:38:51.552Z,99782.13
2022-12-13T23:41:23.320Z,99781.81
2022-12-13T23:43:48.614Z,99786.98
2022-12-13T23:46:15.258Z,99788.58
2022-12-13T23:48:39.240Z,99789.35
2022-12-13T23:51:04.216Z,99789.23
2022-12-13T23:53:29.115Z,99789.90
2022-12-13T23:55:52.851Z,99792.38
2022-12-13T23:58:17.619Z,99797.37
